sensor_id;sensor_type;location;lat;lon;timestamp;temperature;humidity
16172;DHT22;8192;53.596;10.166;2023-04-07T00:02:17;4.70;48.30
16172;DHT22;8192;53.596;10.166;2023-04-07T00:04:44;4.60;48.90
16172;DHT22;8192;53.596;10.166;2023-04-07T00:07:11;4.50;49.50
16172;DHT22;8192;53.596;10.166;2023-04-07T00:09:38;4.50;49.50
16172;DHT22;8192;53.596;10.166;2023-04-07T00:12:05;4.40;50.20
16172;DHT22;8192;53.596;10.166;2023-04-07T00:14:32;4.40;49.90
16172;DHT22;8192;53.596;10.166;2023-04-07T00:16:59;4.50;49.80
16172;DHT22;8192;53.596;10.166;2023-04-07T00:19:27;4.40;49.80
16172;DHT22;8192;53.596;10.166;2023-04-07T00:21:55;4.30;50.20
16172;DHT22;8192;53.596;10.166;2023-04-07T00:24:22;4.40;50.00
16172;DHT22;8192;53.596;10.166;2023-04-07T00:26:49;4.50;49.90
16172;DHT22;8192;53.596;10.166;2023-04-07T00:29:16;4.50;50.00
16172;DHT22;8192;53.596;10.166;2023-04-07T00:31:43;4.40;50.00
16172;DHT22;8192;53.596;10.166;2023-04-07T00:34:10;4.30;50.60
16172;DHT22;8192;53.596;10.166;2023-04-07T00:36:39;4.30;50.50
16172;DHT22;8192;53.596;10.166;2023-04-07T00:39:06;4.30;50.50
16172;DHT22;8192;53.596;10.166;2023-04-07T00:41:33;4.20;50.90
16172;DHT22;8192;53.596;10.166;2023-04-07T00:44:01;4.20;51.20
16172;DHT22;8192;53.596;10.166;2023-04-07T00:46:28;4.20;51.30
16172;DHT22;8192;53.596;10.166;2023-04-07T00:48:55;4.10;51.20
16172;DHT22;8192;53.596;10.166;2023-04-07T00:51:22;4.10;51.30
16172;DHT22;8192;53.596;10.166;2023-04-07T00:53:51;4.00;51.50
16172;DHT22;8192;53.596;10.166;2023-04-07T00:56:18;4.00;52.30
16172;DHT22;8192;53.596;10.166;2023-04-07T00:58:45;4.10;51.50
16172;DHT22;8192;53.596;10.166;2023-04-07T01:01:18;4.20;51.50
16172;DHT22;8192;53.596;10.166;2023-04-07T01:03:52;4.10;51.30
16172;DHT22;8192;53.596;10.166;2023-04-07T01:06:23;4.10;51.40
16172;DHT22;8192;53.596;10.166;2023-04-07T01:09:02;4.10;51.50
16172;DHT22;8192;53.596;10.166;2023-04-07T01:11:35;4.10;51.60
16172;DHT22;8192;53.596;10.166;2023-04-07T01:14:03;4.10;51.50
16172;DHT22;8192;53.596;10.166;2023-04-07T01:16:35;4.00;51.80
16172;DHT22;8192;53.596;10.166;2023-04-07T01:19:13;3.90;52.00
16172;DHT22;8192;53.596;10.166;2023-04-07T01:21:43;3.90;52.60
16172;DHT22;8192;53.596;10.166;2023-04-07T01:24:33;3.90;52.60
16172;DHT22;8192;53.596;10.166;2023-04-07T01:27:11;4.10;52.10
16172;DHT22;8192;53.596;10.166;2023-04-07T01:29:42;4.10;51.60
16172;DHT22;8192;53.596;10.166;2023-04-07T01:32:13;4.10;51.70
16172;DHT22;8192;53.596;10.166;2023-04-07T01:34:41;4.00;51.90
16172;DHT22;8192;53.596;10.166;2023-04-07T01:37:11;3.90;51.70
16172;DHT22;8192;53.596;10.166;2023-04-07T01:39:39;4.00;51.50
16172;DHT22;8192;53.596;10.166;2023-04-07T01:42:06;3.90;51.80
16172;DHT22;8192;53.596;10.166;2023-04-07T01:44:34;3.90;52.40
16172;DHT22;8192;53.596;10.166;2023-04-07T01:47:04;3.80;52.60
16172;DHT22;8192;53.596;10.166;2023-04-07T01:49:33;3.80;52.70
16172;DHT22;8192;53.596;10.166;2023-04-07T01:52:01;3.80;53.10
16172;DHT22;8192;53.596;10.166;2023-04-07T01:54:28;3.70;53.00
16172;DHT22;8192;53.596;10.166;2023-04-07T01:56:56;3.70;53.10
16172;DHT22;8192;53.596;10.166;2023-04-07T01:59:23;3.60;53.50
16172;DHT22;8192;53.596;10.166;2023-04-07T02:01:51;3.60;53.40
16172;DHT22;8192;53.596;10.166;2023-04-07T02:04:23;3.60;53.70
16172;DHT22;8192;53.596;10.166;2023-04-07T02:06:55;3.40;54.20
16172;DHT22;8192;53.596;10.166;2023-04-07T02:09:25;3.40;54.60
16172;DHT22;8192;53.596;10.166;2023-04-07T02:11:54;3.40;54.40
16172;DHT22;8192;53.596;10.166;2023-04-07T02:14:24;3.40;54.60
16172;DHT22;8192;53.596;10.166;2023-04-07T02:16:52;3.50;54.50
16172;DHT22;8192;53.596;10.166;2023-04-07T02:19:21;3.50;54.30
16172;DHT22;8192;53.596;10.166;2023-04-07T02:21:49;3.40;54.30
16172;DHT22;8192;53.596;10.166;2023-04-07T02:24:19;3.30;54.60
16172;DHT22;8192;53.596;10.166;2023-04-07T02:26:46;3.30;54.80
16172;DHT22;8192;53.596;10.166;2023-04-07T02:29:14;3.30;55.30
16172;DHT22;8192;53.596;10.166;2023-04-07T02:31:41;3.20;55.60
16172;DHT22;8192;53.596;10.166;2023-04-07T02:34:08;3.10;55.90
16172;DHT22;8192;53.596;10.166;2023-04-07T02:36:36;3.10;55.80
16172;DHT22;8192;53.596;10.166;2023-04-07T02:39:03;3.20;56.00
16172;DHT22;8192;53.596;10.166;2023-04-07T02:41:30;3.20;55.50
16172;DHT22;8192;53.596;10.166;2023-04-07T02:43:57;3.20;55.30
16172;DHT22;8192;53.596;10.166;2023-04-07T02:46:24;3.30;54.70
16172;DHT22;8192;53.596;10.166;2023-04-07T02:48:51;3.40;54.60
16172;DHT22;8192;53.596;10.166;2023-04-07T02:51:17;3.40;54.30
16172;DHT22;8192;53.596;10.166;2023-04-07T02:53:46;3.30;54.30
16172;DHT22;8192;53.596;10.166;2023-04-07T02:56:14;3.40;54.30
16172;DHT22;8192;53.596;10.166;2023-04-07T02:58:41;3.30;54.30
16172;DHT22;8192;53.596;10.166;2023-04-07T03:01:08;3.30;54.30
16172;DHT22;8192;53.596;10.166;2023-04-07T03:03:35;3.30;54.30
16172;DHT22;8192;53.596;10.166;2023-04-07T03:06:02;3.20;54.60
16172;DHT22;8192;53.596;10.166;2023-04-07T03:08:29;3.20;54.50
16172;DHT22;8192;53.596;10.166;2023-04-07T03:10:57;3.20;54.90
16172;DHT22;8192;53.596;10.166;2023-04-07T03:13:24;3.10;54.70
16172;DHT22;8192;53.596;10.166;2023-04-07T03:15:52;3.10;55.00
16172;DHT22;8192;53.596;10.166;2023-04-07T03:18:19;3.10;54.40
16172;DHT22;8192;53.596;10.166;2023-04-07T03:20:47;3.10;54.70
16172;DHT22;8192;53.596;10.166;2023-04-07T03:23:14;3.10;54.70
16172;DHT22;8192;53.596;10.166;2023-04-07T03:25:41;3.10;54.60
16172;DHT22;8192;53.596;10.166;2023-04-07T03:28:09;3.10;54.60
16172;DHT22;8192;53.596;10.166;2023-04-07T03:30:36;3.20;54.30
16172;DHT22;8192;53.596;10.166;2023-04-07T03:33:03;3.20;55.00
16172;DHT22;8192;53.596;10.166;2023-04-07T03:35:30;3.10;54.40
16172;DHT22;8192;53.596;10.166;2023-04-07T03:37:57;3.20;54.00
16172;DHT22;8192;53.596;10.166;2023-04-07T03:40:24;3.10;54.20
16172;DHT22;8192;53.596;10.166;2023-04-07T03:42:50;3.00;54.90
16172;DHT22;8192;53.596;10.166;2023-04-07T03:45:19;2.90;55.10
16172;DHT22;8192;53.596;10.166;2023-04-07T03:47:46;2.80;55.70
16172;DHT22;8192;53.596;10.166;2023-04-07T03:50:13;2.60;56.50
16172;DHT22;8192;53.596;10.166;2023-04-07T03:52:40;2.60;56.80
16172;DHT22;8192;53.596;10.166;2023-04-07T03:55:08;2.60;57.20
16172;DHT22;8192;53.596;10.166;2023-04-07T03:57:35;2.50;57.70
16172;DHT22;8192;53.596;10.166;2023-04-07T04:00:02;2.50;57.50
16172;DHT22;8192;53.596;10.166;2023-04-07T04:02:31;2.50;57.50
16172;DHT22;8192;53.596;10.166;2023-04-07T04:04:58;2.50;57.40
16172;DHT22;8192;53.596;10.166;2023-04-07T04:07:25;2.50;57.60
16172;DHT22;8192;53.596;10.166;2023-04-07T04:09:52;2.60;57.30
16172;DHT22;8192;53.596;10.166;2023-04-07T04:12:19;2.60;57.00
16172;DHT22;8192;53.596;10.166;2023-04-07T04:14:46;2.60;57.30
16172;DHT22;8192;53.596;10.166;2023-04-07T04:17:13;2.40;57.50
16172;DHT22;8192;53.596;10.166;2023-04-07T04:19:41;2.30;58.40
16172;DHT22;8192;53.596;10.166;2023-04-07T04:22:08;2.20;58.80
16172;DHT22;8192;53.596;10.166;2023-04-07T04:24:35;2.20;59.10
16172;DHT22;8192;53.596;10.166;2023-04-07T04:27:02;2.20;59.20
16172;DHT22;8192;53.596;10.166;2023-04-07T04:29:29;2.20;59.40
16172;DHT22;8192;53.596;10.166;2023-04-07T04:31:57;2.20;60.20
16172;DHT22;8192;53.596;10.166;2023-04-07T04:34:25;2.30;60.20
16172;DHT22;8192;53.596;10.166;2023-04-07T04:36:59;2.30;59.80
16172;DHT22;8192;53.596;10.166;2023-04-07T04:39:26;2.30;60.60
16172;DHT22;8192;53.596;10.166;2023-04-07T04:41:53;2.20;60.80
16172;DHT22;8192;53.596;10.166;2023-04-07T04:44:21;2.20;61.00
16172;DHT22;8192;53.596;10.166;2023-04-07T04:46:47;2.20;61.00
16172;DHT22;8192;53.596;10.166;2023-04-07T04:49:15;2.20;61.20
16172;DHT22;8192;53.596;10.166;2023-04-07T04:51:43;2.30;62.00
16172;DHT22;8192;53.596;10.166;2023-04-07T04:54:11;2.20;61.80
16172;DHT22;8192;53.596;10.166;2023-04-07T04:56:38;2.20;61.80
16172;DHT22;8192;53.596;10.166;2023-04-07T04:59:07;2.20;62.20
16172;DHT22;8192;53.596;10.166;2023-04-07T05:01:34;2.30;62.20
16172;DHT22;8192;53.596;10.166;2023-04-07T05:04:01;2.20;62.40
16172;DHT22;8192;53.596;10.166;2023-04-07T05:06:30;2.20;63.60
16172;DHT22;8192;53.596;10.166;2023-04-07T05:08:57;2.10;63.80
16172;DHT22;8192;53.596;10.166;2023-04-07T05:11:29;2.10;64.10
16172;DHT22;8192;53.596;10.166;2023-04-07T05:13:56;2.10;64.30
16172;DHT22;8192;53.596;10.166;2023-04-07T05:16:23;2.20;64.00
16172;DHT22;8192;53.596;10.166;2023-04-07T05:18:50;2.10;65.10
16172;DHT22;8192;53.596;10.166;2023-04-07T05:21:17;2.10;64.50
16172;DHT22;8192;53.596;10.166;2023-04-07T05:23:45;2.30;63.90
16172;DHT22;8192;53.596;10.166;2023-04-07T05:26:11;2.30;63.70
16172;DHT22;8192;53.596;10.166;2023-04-07T05:28:42;2.40;63.00
16172;DHT22;8192;53.596;10.166;2023-04-07T05:31:09;2.60;63.40
16172;DHT22;8192;53.596;10.166;2023-04-07T05:33:36;2.90;63.00
16172;DHT22;8192;53.596;10.166;2023-04-07T05:36:03;3.10;61.00
16172;DHT22;8192;53.596;10.166;2023-04-07T05:38:30;3.20;59.60
16172;DHT22;8192;53.596;10.166;2023-04-07T05:40:57;3.50;58.80
16172;DHT22;8192;53.596;10.166;2023-04-07T05:43:24;3.50;58.30
16172;DHT22;8192;53.596;10.166;2023-04-07T05:45:53;3.80;57.30
16172;DHT22;8192;53.596;10.166;2023-04-07T05:48:20;4.10;56.40
16172;DHT22;8192;53.596;10.166;2023-04-07T05:50:47;4.50;54.50
16172;DHT22;8192;53.596;10.166;2023-04-07T05:53:14;4.80;54.20
16172;DHT22;8192;53.596;10.166;2023-04-07T05:55:41;5.10;52.40
16172;DHT22;8192;53.596;10.166;2023-04-07T05:58:08;5.10;51.40
16172;DHT22;8192;53.596;10.166;2023-04-07T06:00:35;5.40;51.10
16172;DHT22;8192;53.596;10.166;2023-04-07T06:03:06;5.60;51.20
16172;DHT22;8192;53.596;10.166;2023-04-07T06:05:33;5.60;49.00
16172;DHT22;8192;53.596;10.166;2023-04-07T06:08:00;5.70;49.30
16172;DHT22;8192;53.596;10.166;2023-04-07T06:10:32;5.80;48.70
16172;DHT22;8192;53.596;10.166;2023-04-07T06:12:59;6.30;48.30
16172;DHT22;8192;53.596;10.166;2023-04-07T06:15:26;6.50;46.60
16172;DHT22;8192;53.596;10.166;2023-04-07T06:17:53;6.70;46.90
16172;DHT22;8192;53.596;10.166;2023-04-07T06:20:22;6.90;44.90
16172;DHT22;8192;53.596;10.166;2023-04-07T06:23:09;6.60;45.20
16172;DHT22;8192;53.596;10.166;2023-04-07T06:25:36;6.40;45.20
16172;DHT22;8192;53.596;10.166;2023-04-07T06:28:03;6.60;44.60
16172;DHT22;8192;53.596;10.166;2023-04-07T06:30:31;6.80;45.30
16172;DHT22;8192;53.596;10.166;2023-04-07T06:32:58;7.30;42.90
16172;DHT22;8192;53.596;10.166;2023-04-07T06:35:27;7.20;42.80
16172;DHT22;8192;53.596;10.166;2023-04-07T06:37:54;7.20;43.50
16172;DHT22;8192;53.596;10.166;2023-04-07T06:40:21;7.40;42.00
16172;DHT22;8192;53.596;10.166;2023-04-07T06:42:52;7.50;41.50
16172;DHT22;8192;53.596;10.166;2023-04-07T06:45:20;7.70;41.30
16172;DHT22;8192;53.596;10.166;2023-04-07T06:47:53;7.70;40.60
16172;DHT22;8192;53.596;10.166;2023-04-07T06:50:32;7.70;40.50
16172;DHT22;8192;53.596;10.166;2023-04-07T06:52:59;8.10;39.30
16172;DHT22;8192;53.596;10.166;2023-04-07T06:55:28;7.90;40.40
16172;DHT22;8192;53.596;10.166;2023-04-07T06:58:07;8.50;41.40
16172;DHT22;8192;53.596;10.166;2023-04-07T07:00:34;8.70;37.10
16172;DHT22;8192;53.596;10.166;2023-04-07T07:03:01;8.80;35.90
16172;DHT22;8192;53.596;10.166;2023-04-07T07:05:30;8.90;37.10
16172;DHT22;8192;53.596;10.166;2023-04-07T07:08:06;9.20;36.80
16172;DHT22;8192;53.596;10.166;2023-04-07T07:10:33;9.30;34.40
16172;DHT22;8192;53.596;10.166;2023-04-07T07:13:02;9.10;34.80
16172;DHT22;8192;53.596;10.166;2023-04-07T07:15:29;9.30;33.00
16172;DHT22;8192;53.596;10.166;2023-04-07T07:17:55;9.30;33.40
16172;DHT22;8192;53.596;10.166;2023-04-07T07:20:23;9.70;31.10
16172;DHT22;8192;53.596;10.166;2023-04-07T07:22:51;9.70;31.20
16172;DHT22;8192;53.596;10.166;2023-04-07T07:25:27;9.90;32.40
16172;DHT22;8192;53.596;10.166;2023-04-07T07:27:54;10.10;30.20
16172;DHT22;8192;53.596;10.166;2023-04-07T07:30:22;10.60;29.30
16172;DHT22;8192;53.596;10.166;2023-04-07T07:32:50;9.90;29.10
16172;DHT22;8192;53.596;10.166;2023-04-07T07:35:19;10.00;28.80
16172;DHT22;8192;53.596;10.166;2023-04-07T07:37:48;9.40;31.20
16172;DHT22;8192;53.596;10.166;2023-04-07T07:40:18;10.00;29.20
16172;DHT22;8192;53.596;10.166;2023-04-07T07:42:45;10.10;28.60
16172;DHT22;8192;53.596;10.166;2023-04-07T07:48:12;9.30;29.90
16172;DHT22;8192;53.596;10.166;2023-04-07T07:50:39;9.10;30.70
16172;DHT22;8192;53.596;10.166;2023-04-07T07:53:07;8.70;31.20
16172;DHT22;8192;53.596;10.166;2023-04-07T07:55:36;8.50;34.70
16172;DHT22;8192;53.596;10.166;2023-04-07T07:58:03;8.30;32.80
16172;DHT22;8192;53.596;10.166;2023-04-07T08:00:38;8.10;32.60
16172;DHT22;8192;53.596;10.166;2023-04-07T08:03:05;8.10;34.70
16172;DHT22;8192;53.596;10.166;2023-04-07T08:05:32;8.40;35.30
16172;DHT22;8192;53.596;10.166;2023-04-07T08:07:59;8.50;33.00
16172;DHT22;8192;53.596;10.166;2023-04-07T08:10:27;8.50;33.10
16172;DHT22;8192;53.596;10.166;2023-04-07T08:12:55;8.40;32.20
16172;DHT22;8192;53.596;10.166;2023-04-07T08:15:22;8.40;33.00
16172;DHT22;8192;53.596;10.166;2023-04-07T08:17:50;8.40;31.90
16172;DHT22;8192;53.596;10.166;2023-04-07T08:20:17;8.50;31.20
16172;DHT22;8192;53.596;10.166;2023-04-07T08:22:44;8.70;33.80
16172;DHT22;8192;53.596;10.166;2023-04-07T08:25:11;8.90;33.00
16172;DHT22;8192;53.596;10.166;2023-04-07T08:27:38;8.80;30.60
16172;DHT22;8192;53.596;10.166;2023-04-07T08:30:07;8.70;32.10
16172;DHT22;8192;53.596;10.166;2023-04-07T08:32:35;8.80;33.70
16172;DHT22;8192;53.596;10.166;2023-04-07T08:35:03;9.00;30.40
16172;DHT22;8192;53.596;10.166;2023-04-07T08:37:31;9.00;30.50
16172;DHT22;8192;53.596;10.166;2023-04-07T08:39:58;9.10;29.70
16172;DHT22;8192;53.596;10.166;2023-04-07T08:42:27;9.20;30.00
16172;DHT22;8192;53.596;10.166;2023-04-07T08:44:58;9.40;31.30
16172;DHT22;8192;53.596;10.166;2023-04-07T08:47:30;9.50;28.80
16172;DHT22;8192;53.596;10.166;2023-04-07T08:50:00;9.70;30.20
16172;DHT22;8192;53.596;10.166;2023-04-07T08:52:32;9.60;28.90
16172;DHT22;8192;53.596;10.166;2023-04-07T08:58:16;9.40;27.40
16172;DHT22;8192;53.596;10.166;2023-04-07T09:00:44;9.30;28.20
16172;DHT22;8192;53.596;10.166;2023-04-07T09:06:40;9.40;30.20
16172;DHT22;8192;53.596;10.166;2023-04-07T09:09:10;9.60;28.70
16172;DHT22;8192;53.596;10.166;2023-04-07T09:11:38;9.70;28.00
16172;DHT22;8192;53.596;10.166;2023-04-07T09:14:05;9.70;27.00
16172;DHT22;8192;53.596;10.166;2023-04-07T09:16:34;9.50;27.20
16172;DHT22;8192;53.596;10.166;2023-04-07T09:19:02;9.50;27.00
16172;DHT22;8192;53.596;10.166;2023-04-07T09:24:29;9.70;27.80
16172;DHT22;8192;53.596;10.166;2023-04-07T09:27:10;9.70;25.10
16172;DHT22;8192;53.596;10.166;2023-04-07T09:29:44;9.90;28.40
16172;DHT22;8192;53.596;10.166;2023-04-07T09:32:11;10.20;26.00
16172;DHT22;8192;53.596;10.166;2023-04-07T09:34:40;9.90;25.90
16172;DHT22;8192;53.596;10.166;2023-04-07T09:37:42;9.90;25.90
16172;DHT22;8192;53.596;10.166;2023-04-07T09:40:25;9.80;25.20
16172;DHT22;8192;53.596;10.166;2023-04-07T09:42:53;9.90;24.80
16172;DHT22;8192;53.596;10.166;2023-04-07T09:45:25;9.90;26.00
16172;DHT22;8192;53.596;10.166;2023-04-07T09:48:08;10.10;24.80
16172;DHT22;8192;53.596;10.166;2023-04-07T09:50:43;10.20;24.00
16172;DHT22;8192;53.596;10.166;2023-04-07T09:53:14;10.30;23.10
16172;DHT22;8192;53.596;10.166;2023-04-07T09:55:45;10.20;23.10
16172;DHT22;8192;53.596;10.166;2023-04-07T09:58:15;10.30;24.40
16172;DHT22;8192;53.596;10.166;2023-04-07T10:00:43;10.20;24.20
16172;DHT22;8192;53.596;10.166;2023-04-07T10:03:13;10.20;22.60
16172;DHT22;8192;53.596;10.166;2023-04-07T10:05:41;10.20;23.30
16172;DHT22;8192;53.596;10.166;2023-04-07T10:11:34;9.90;23.00
16172;DHT22;8192;53.596;10.166;2023-04-07T10:14:03;9.70;22.50
16172;DHT22;8192;53.596;10.166;2023-04-07T10:16:30;9.90;23.00
16172;DHT22;8192;53.596;10.166;2023-04-07T10:18:58;10.00;23.10
16172;DHT22;8192;53.596;10.166;2023-04-07T10:21:25;10.10;23.60
16172;DHT22;8192;53.596;10.166;2023-04-07T10:24:03;10.10;22.70
16172;DHT22;8192;53.596;10.166;2023-04-07T10:27:08;10.00;23.00
16172;DHT22;8192;53.596;10.166;2023-04-07T10:29:41;10.10;25.20
16172;DHT22;8192;53.596;10.166;2023-04-07T10:32:08;10.20;22.00
16172;DHT22;8192;53.596;10.166;2023-04-07T10:34:58;10.20;23.00
16172;DHT22;8192;53.596;10.166;2023-04-07T10:37:25;10.40;21.70
16172;DHT22;8192;53.596;10.166;2023-04-07T10:40:27;10.50;21.90
16172;DHT22;8192;53.596;10.166;2023-04-07T10:42:56;10.40;23.20
16172;DHT22;8192;53.596;10.166;2023-04-07T10:45:55;10.30;24.20
16172;DHT22;8192;53.596;10.166;2023-04-07T10:48:24;10.60;24.00
16172;DHT22;8192;53.596;10.166;2023-04-07T10:51:22;10.40;23.10
16172;DHT22;8192;53.596;10.166;2023-04-07T10:54:18;10.40;23.00
16172;DHT22;8192;53.596;10.166;2023-04-07T10:57:14;10.30;24.00
16172;DHT22;8192;53.596;10.166;2023-04-07T11:00:15;10.30;24.50
16172;DHT22;8192;53.596;10.166;2023-04-07T11:02:43;10.30;24.10
16172;DHT22;8192;53.596;10.166;2023-04-07T11:05:21;10.30;25.20
16172;DHT22;8192;53.596;10.166;2023-04-07T11:11:11;10.20;27.30
16172;DHT22;8192;53.596;10.166;2023-04-07T11:13:40;10.30;28.00
16172;DHT22;8192;53.596;10.166;2023-04-07T11:16:15;10.50;26.50
16172;DHT22;8192;53.596;10.166;2023-04-07T11:18:49;10.30;24.20
16172;DHT22;8192;53.596;10.166;2023-04-07T11:28:43;10.60;25.90
16172;DHT22;8192;53.596;10.166;2023-04-07T11:31:27;10.70;22.40
16172;DHT22;8192;53.596;10.166;2023-04-07T11:33:59;10.70;23.00
16172;DHT22;8192;53.596;10.166;2023-04-07T11:36:41;10.50;22.50
16172;DHT22;8192;53.596;10.166;2023-04-07T11:42:04;10.20;22.90
16172;DHT22;8192;53.596;10.166;2023-04-07T11:44:33;10.30;23.70
16172;DHT22;8192;53.596;10.166;2023-04-07T11:47:02;10.30;23.30
16172;DHT22;8192;53.596;10.166;2023-04-07T11:49:45;10.10;23.80
16172;DHT22;8192;53.596;10.166;2023-04-07T11:55:34;10.10;24.80
16172;DHT22;8192;53.596;10.166;2023-04-07T11:58:06;10.20;22.40
16172;DHT22;8192;53.596;10.166;2023-04-07T12:00:35;10.30;22.00
16172;DHT22;8192;53.596;10.166;2023-04-07T12:03:20;10.20;22.10
16172;DHT22;8192;53.596;10.166;2023-04-07T12:05:51;10.10;23.00
16172;DHT22;8192;53.596;10.166;2023-04-07T12:08:36;10.10;22.70
16172;DHT22;8192;53.596;10.166;2023-04-07T12:11:04;10.40;21.70
16172;DHT22;8192;53.596;10.166;2023-04-07T12:13:32;10.40;21.50
16172;DHT22;8192;53.596;10.166;2023-04-07T12:16:11;10.50;21.60
16172;DHT22;8192;53.596;10.166;2023-04-07T12:32:12;10.30;20.00
16172;DHT22;8192;53.596;10.166;2023-04-07T12:37:48;10.40;21.70
16172;DHT22;8192;53.596;10.166;2023-04-07T12:40:34;10.30;21.10
16172;DHT22;8192;53.596;10.166;2023-04-07T12:43:29;10.50;23.40
16172;DHT22;8192;53.596;10.166;2023-04-07T12:46:13;10.50;21.50
16172;DHT22;8192;53.596;10.166;2023-04-07T12:48:56;10.50;22.10
16172;DHT22;8192;53.596;10.166;2023-04-07T12:51:23;10.60;19.90
16172;DHT22;8192;53.596;10.166;2023-04-07T12:53:50;10.70;21.00
16172;DHT22;8192;53.596;10.166;2023-04-07T12:56:18;11.10;22.20
16172;DHT22;8192;53.596;10.166;2023-04-07T12:58:46;11.20;21.70
16172;DHT22;8192;53.596;10.166;2023-04-07T13:01:13;10.90;22.70
16172;DHT22;8192;53.596;10.166;2023-04-07T13:03:41;10.90;22.60
16172;DHT22;8192;53.596;10.166;2023-04-07T13:06:09;10.90;23.80
16172;DHT22;8192;53.596;10.166;2023-04-07T13:08:36;10.90;23.60
16172;DHT22;8192;53.596;10.166;2023-04-07T13:11:03;11.10;24.00
16172;DHT22;8192;53.596;10.166;2023-04-07T13:13:31;11.10;23.00
16172;DHT22;8192;53.596;10.166;2023-04-07T13:15:58;10.90;23.50
16172;DHT22;8192;53.596;10.166;2023-04-07T13:18:25;10.80;24.60
16172;DHT22;8192;53.596;10.166;2023-04-07T13:20:52;10.70;24.80
16172;DHT22;8192;53.596;10.166;2023-04-07T13:23:20;10.80;25.60
16172;DHT22;8192;53.596;10.166;2023-04-07T13:25:48;10.90;25.80
16172;DHT22;8192;53.596;10.166;2023-04-07T13:28:15;10.80;25.60
16172;DHT22;8192;53.596;10.166;2023-04-07T13:30:42;10.50;26.30
16172;DHT22;8192;53.596;10.166;2023-04-07T13:33:09;10.30;27.30
16172;DHT22;8192;53.596;10.166;2023-04-07T13:35:36;10.40;28.00
16172;DHT22;8192;53.596;10.166;2023-04-07T13:38:03;10.70;28.40
16172;DHT22;8192;53.596;10.166;2023-04-07T13:40:33;11.00;28.50
16172;DHT22;8192;53.596;10.166;2023-04-07T13:42:59;11.00;29.00
16172;DHT22;8192;53.596;10.166;2023-04-07T13:45:27;10.70;29.80
16172;DHT22;8192;53.596;10.166;2023-04-07T13:47:54;10.60;33.00
16172;DHT22;8192;53.596;10.166;2023-04-07T13:50:21;10.70;34.30
16172;DHT22;8192;53.596;10.166;2023-04-07T13:52:48;10.70;35.10
16172;DHT22;8192;53.596;10.166;2023-04-07T13:55:15;10.70;37.70
16172;DHT22;8192;53.596;10.166;2023-04-07T13:57:46;10.70;41.10
16172;DHT22;8192;53.596;10.166;2023-04-07T14:00:14;10.90;41.30
16172;DHT22;8192;53.596;10.166;2023-04-07T14:02:41;10.80;41.80
16172;DHT22;8192;53.596;10.166;2023-04-07T14:05:10;10.80;41.30
16172;DHT22;8192;53.596;10.166;2023-04-07T14:07:37;10.70;42.40
16172;DHT22;8192;53.596;10.166;2023-04-07T14:10:04;10.60;43.30
16172;DHT22;8192;53.596;10.166;2023-04-07T14:12:31;10.70;44.60
16172;DHT22;8192;53.596;10.166;2023-04-07T14:15:00;10.90;44.40
16172;DHT22;8192;53.596;10.166;2023-04-07T14:17:28;11.00;45.30
16172;DHT22;8192;53.596;10.166;2023-04-07T14:19:55;10.90;46.40
16172;DHT22;8192;53.596;10.166;2023-04-07T14:22:22;10.40;48.20
16172;DHT22;8192;53.596;10.166;2023-04-07T14:24:49;10.10;49.90
16172;DHT22;8192;53.596;10.166;2023-04-07T14:27:16;9.80;51.50
16172;DHT22;8192;53.596;10.166;2023-04-07T14:29:45;9.70;53.30
16172;DHT22;8192;53.596;10.166;2023-04-07T14:32:14;9.70;54.10
16172;DHT22;8192;53.596;10.166;2023-04-07T14:34:41;9.50;54.30
16172;DHT22;8192;53.596;10.166;2023-04-07T14:37:08;9.20;56.20
16172;DHT22;8192;53.596;10.166;2023-04-07T14:39:35;9.20;56.60
16172;DHT22;8192;53.596;10.166;2023-04-07T14:42:02;9.40;57.20
16172;DHT22;8192;53.596;10.166;2023-04-07T14:44:30;9.30;56.60
16172;DHT22;8192;53.596;10.166;2023-04-07T14:46:57;9.10;56.80
16172;DHT22;8192;53.596;10.166;2023-04-07T14:49:26;9.00;57.40
16172;DHT22;8192;53.596;10.166;2023-04-07T14:51:53;9.00;57.90
16172;DHT22;8192;53.596;10.166;2023-04-07T14:54:20;9.00;58.70
16172;DHT22;8192;53.596;10.166;2023-04-07T14:56:47;8.70;59.00
16172;DHT22;8192;53.596;10.166;2023-04-07T14:59:15;8.90;60.50
16172;DHT22;8192;53.596;10.166;2023-04-07T15:01:42;8.90;59.60
16172;DHT22;8192;53.596;10.166;2023-04-07T15:04:09;9.00;59.70
16172;DHT22;8192;53.596;10.166;2023-04-07T15:06:40;9.00;60.00
16172;DHT22;8192;53.596;10.166;2023-04-07T15:09:07;8.90;59.80
16172;DHT22;8192;53.596;10.166;2023-04-07T15:11:34;8.70;61.10
16172;DHT22;8192;53.596;10.166;2023-04-07T15:14:01;8.50;62.40
16172;DHT22;8192;53.596;10.166;2023-04-07T15:16:31;8.40;63.90
16172;DHT22;8192;53.596;10.166;2023-04-07T15:18:58;8.20;65.80
16172;DHT22;8192;53.596;10.166;2023-04-07T15:21:26;8.20;67.30
16172;DHT22;8192;53.596;10.166;2023-04-07T15:23:54;8.00;67.90
16172;DHT22;8192;53.596;10.166;2023-04-07T15:26:21;8.10;69.40
16172;DHT22;8192;53.596;10.166;2023-04-07T15:28:48;8.10;69.70
16172;DHT22;8192;53.596;10.166;2023-04-07T15:31:16;8.10;69.10
16172;DHT22;8192;53.596;10.166;2023-04-07T15:33:45;8.00;69.50
16172;DHT22;8192;53.596;10.166;2023-04-07T15:36:12;7.80;71.20
16172;DHT22;8192;53.596;10.166;2023-04-07T15:38:39;7.70;73.20
16172;DHT22;8192;53.596;10.166;2023-04-07T15:41:08;7.80;73.50
16172;DHT22;8192;53.596;10.166;2023-04-07T15:43:35;7.70;74.00
16172;DHT22;8192;53.596;10.166;2023-04-07T15:46:02;7.80;76.20
16172;DHT22;8192;53.596;10.166;2023-04-07T15:48:31;7.60;75.20
16172;DHT22;8192;53.596;10.166;2023-04-07T15:50:58;7.50;78.00
16172;DHT22;8192;53.596;10.166;2023-04-07T15:53:25;7.50;80.90
16172;DHT22;8192;53.596;10.166;2023-04-07T15:55:52;7.40;82.20
16172;DHT22;8192;53.596;10.166;2023-04-07T15:58:22;7.40;83.70
16172;DHT22;8192;53.596;10.166;2023-04-07T16:00:49;7.40;86.60
16172;DHT22;8192;53.596;10.166;2023-04-07T16:03:16;7.20;88.00
16172;DHT22;8192;53.596;10.166;2023-04-07T16:05:43;7.00;90.00
16172;DHT22;8192;53.596;10.166;2023-04-07T16:08:14;6.90;91.70
16172;DHT22;8192;53.596;10.166;2023-04-07T16:10:41;6.90;93.30
16172;DHT22;8192;53.596;10.166;2023-04-07T16:13:08;6.90;94.10
16172;DHT22;8192;53.596;10.166;2023-04-07T16:15:37;6.90;94.20
16172;DHT22;8192;53.596;10.166;2023-04-07T16:18:07;6.80;95.40
16172;DHT22;8192;53.596;10.166;2023-04-07T16:20:34;6.80;96.70
16172;DHT22;8192;53.596;10.166;2023-04-07T16:23:02;6.80;96.50
16172;DHT22;8192;53.596;10.166;2023-04-07T16:25:29;6.70;96.70
16172;DHT22;8192;53.596;10.166;2023-04-07T16:27:56;6.70;97.40
16172;DHT22;8192;53.596;10.166;2023-04-07T16:30:23;6.60;97.50
16172;DHT22;8192;53.596;10.166;2023-04-07T16:32:58;6.60;97.20
16172;DHT22;8192;53.596;10.166;2023-04-07T16:35:26;6.50;98.90
16172;DHT22;8192;53.596;10.166;2023-04-07T16:37:53;6.50;99.90
16172;DHT22;8192;53.596;10.166;2023-04-07T16:40:23;6.40;99.90
16172;DHT22;8192;53.596;10.166;2023-04-07T16:42:50;6.40;99.90
16172;DHT22;8192;53.596;10.166;2023-04-07T16:45:17;6.30;99.90
16172;DHT22;8192;53.596;10.166;2023-04-07T16:47:44;6.30;99.90